Time,TemperatureF,DewpointF,PressureIn,WindDirection,WindDirectionDegrees,WindSpeedMPH,WindSpeedGustMPH,Humidity,HourlyPrecipIn,Conditions,Clouds,dailyrainin,SoftwareType,DateUTC
2013-04-11 00:03:00,63.5,53.0,29.79,South,186,0.0,-999.0,69,-99.99,,,0.00,weatherlink.com 1.10,2013-04-11 04:03:00,
2013-04-11 00:18:00,62.9,53.0,29.79,SSW,206,0.0,-999.0,70,-99.99,,,0.00,weatherlink.com 1.10,2013-04-11 04:18:00,
2013-04-11 00:34:00,62.7,53.0,29.80,SSW,200,0.0,-999.0,71,-99.99,,,0.00,weatherlink.com 1.10,2013-04-11 04:34:00,
2013-04-11 00:49:00,62.6,53.0,29.80,WSW,237,0.0,-999.0,71,-99.99,,,0.00,weatherlink.com 1.10,2013-04-11 04:49:00,
2013-04-11 01:04:00,62.1,53.0,29.80,SW,234,0.0,-999.0,72,-99.99,,,0.00,weatherlink.com 1.10,2013-04-11 05:04:00,
2013-04-11 01:19:00,61.5,53.0,29.80,SW,236,0.0,-999.0,73,-99.99,,,0.00,weatherlink.com 1.10,2013-04-11 05:19:00,
2013-04-11 01:34:00,60.4,53.0,29.80,WSW,244,0.0,-999.0,76,-99.99,,,0.00,weatherlink.com 1.10,2013-04-11 05:34:00,
2013-04-11 01:49:00,59.0,52.0,29.80,WSW,244,0.0,-999.0,78,-99.99,,,0.00,weatherlink.com 1.10,2013-04-11 05:49:00,
2013-04-11 02:04:00,58.0,52.0,29.79,WSW,244,0.0,-999.0,80,-99.99,,,0.00,weatherlink.com 1.10,2013-04-11 06:04:00,
2013-04-11 02:19:00,57.0,52.0,29.79,WSW,244,0.0,-999.0,83,-99.99,,,0.00,weatherlink.com 1.10,2013-04-11 06:19:00,
2013-04-11 02:34:00,57.2,52.0,29.79,NW,319,0.0,-999.0,82,-99.99,,,0.00,weatherlink.com 1.10,2013-04-11 06:34:00,
2013-04-11 02:49:00,57.0,52.0,29.79,NW,319,0.0,-999.0,83,-99.99,,,0.00,weatherlink.com 1.10,2013-04-11 06:49:00,
2013-04-11 03:04:00,57.3,52.0,29.78,East,96,0.0,-999.0,83,-99.99,,,0.00,weatherlink.com 1.10,2013-04-11 07:04:00,
2013-04-11 03:19:00,58.3,53.0,29.77,ENE,66,0.0,-999.0,81,-99.99,,,0.00,weatherlink.com 1.10,2013-04-11 07:19:00,
2013-04-11 03:34:00,58.9,52.0,29.76,North,350,0.0,-999.0,79,-99.99,,,0.00,weatherlink.com 1.10,2013-04-11 07:34:00,
2013-04-11 03:49:00,59.3,52.0,29.75,NNW,346,0.0,-999.0,78,-99.99,,,0.00,weatherlink.com 1.10,2013-04-11 07:49:00,
2013-04-11 04:04:00,59.3,52.0,29.75,WSW,254,0.0,-999.0,77,-99.99,,,0.00,weatherlink.com 1.10,2013-04-11 08:04:00,
2013-04-11 04:19:00,59.9,52.0,29.75,SSE,147,0.0,-999.0,75,-99.99,,,0.00,weatherlink.com 1.10,2013-04-11 08:19:00,
2013-04-11 04:34:00,59.3,52.0,29.75,WNW,301,0.0,-999.0,77,-99.99,,,0.00,weatherlink.com 1.10,2013-04-11 08:34:00,
2013-04-11 04:49:00,58.9,52.0,29.75,SSW,212,0.0,-999.0,78,-99.99,,,0.00,weatherlink.com 1.10,2013-04-11 08:49:00,
2013-04-11 05:04:00,58.7,52.0,29.75,SW,215,0.0,-999.0,77,-99.99,,,0.00,weatherlink.com 1.10,2013-04-11 09:04:00,
2013-04-11 05:19:00,58.9,52.0,29.74,NW,304,3.0,-999.0,77,-99.99,,,0.00,weatherlink.com 1.10,2013-04-11 09:19:00,
2013-04-11 05:34:00,58.7,52.0,29.75,WSW,239,4.0,-999.0,77,-99.99,,,0.00,weatherlink.com 1.10,2013-04-11 09:34:00,
2013-04-11 05:49:00,58.4,51.0,29.75,West,261,4.0,-999.0,76,-99.99,,,0.00,weatherlink.com 1.10,2013-04-11 09:49:00,
2013-04-11 06:04:00,58.9,51.0,29.76,SW,234,3.0,-999.0,75,-99.99,,,0.00,weatherlink.com 1.10,2013-04-11 10:04:00,
2013-04-11 06:19:00,58.7,51.0,29.76,WSW,239,0.0,-999.0,75,-99.99,,,0.00,weatherlink.com 1.10,2013-04-11 10:19:00,
2013-04-11 06:34:00,58.1,51.0,29.78,West,265,0.0,-999.0,77,-99.99,,,0.00,weatherlink.com 1.10,2013-04-11 10:34:00,
2013-04-11 06:49:00,57.5,51.0,29.78,West,265,0.0,-999.0,78,-99.99,,,0.00,weatherlink.com 1.10,2013-04-11 10:49:00,
2013-04-11 07:04:00,56.6,51.0,29.79,West,265,0.0,-999.0,80,-99.99,,,0.00,weatherlink.com 1.10,2013-04-11 11:04:00,
2013-04-11 07:19:00,56.0,50.0,29.79,West,265,0.0,-999.0,81,-99.99,,,0.00,weatherlink.com 1.10,2013-04-11 11:19:00,
2013-04-11 07:34:00,56.0,50.0,29.81,NNW,337,0.0,-999.0,81,-99.99,,,0.00,weatherlink.com 1.10,2013-04-11 11:34:00,
2013-04-11 07:49:00,55.6,51.0,29.82,NNW,337,0.0,-999.0,83,-99.99,,,0.00,weatherlink.com 1.10,2013-04-11 11:49:00,
2013-04-11 08:04:00,55.6,52.0,29.82,NNW,337,0.0,-999.0,86,-99.99,,,0.00,weatherlink.com 1.10,2013-04-11 12:04:00,
2013-04-11 08:19:00,56.3,52.0,29.82,NNW,337,0.0,-999.0,86,-99.99,,,0.00,weatherlink.com 1.10,2013-04-11 12:19:00,
2013-04-11 08:34:00,57.0,52.0,29.83,ENE,58,0.0,-999.0,83,-99.99,,,0.00,weatherlink.com 1.10,2013-04-11 12:34:00,
2013-04-11 08:49:00,57.8,53.0,29.83,North,7,0.0,-999.0,83,-99.99,,,0.00,weatherlink.com 1.10,2013-04-11 12:49:00,
2013-04-11 09:04:00,59.8,51.0,29.82,South,174,0.0,-999.0,73,-99.99,,,0.00,weatherlink.com 1.10,2013-04-11 13:04:00,
2013-04-11 09:19:00,61.6,54.0,29.82,NW,320,2.0,-999.0,75,-99.99,,,0.00,weatherlink.com 1.10,2013-04-11 13:19:00,
2013-04-11 09:34:00,63.4,51.0,29.81,SSE,167,0.0,-999.0,64,-99.99,,,0.00,weatherlink.com 1.10,2013-04-11 13:34:00,
2013-04-11 09:49:00,65.6,50.0,29.80,SSW,210,0.0,-999.0,58,-99.99,,,0.00,weatherlink.com 1.10,2013-04-11 13:49:00,
2013-04-11 10:05:00,66.9,51.0,29.79,ENE,73,1.0,-999.0,57,-99.99,,,0.00,weatherlink.com 1.10,2013-04-11 14:05:00,
2013-04-11 10:20:00,67.1,52.0,29.78,North,7,0.0,-999.0,58,-99.99,,,0.00,weatherlink.com 1.10,2013-04-11 14:20:00,
2013-04-11 10:35:00,67.1,55.0,29.79,North,349,0.0,-999.0,65,-99.99,,,0.00,weatherlink.com 1.10,2013-04-11 14:35:00,
2013-04-11 10:50:00,66.1,53.0,29.79,SSW,206,0.0,-999.0,63,-99.99,,,0.00,weatherlink.com 1.10,2013-04-11 14:50:00,
2013-04-11 11:05:00,65.6,53.0,29.79,NNW,335,0.0,-999.0,63,-99.99,,,0.00,weatherlink.com 1.10,2013-04-11 15:05:00,
2013-04-11 11:20:00,66.3,53.0,29.79,ENE,61,0.0,-999.0,63,-99.99,,,0.00,weatherlink.com 1.10,2013-04-11 15:20:00,
2013-04-11 11:35:00,67.8,54.0,29.79,NW,311,1.0,-999.0,62,-99.99,,,0.00,weatherlink.com 1.10,2013-04-11 15:35:00,
2013-04-11 11:50:00,69.1,53.0,29.78,SSW,200,0.0,-999.0,56,-99.99,,,0.00,weatherlink.com 1.10,2013-04-11 15:50:00,
2013-04-11 12:05:00,69.8,54.0,29.77,South,188,10.0,-999.0,57,-99.99,,,0.00,weatherlink.com 1.10,2013-04-11 16:05:00,
2013-04-11 12:20:00,69.1,55.0,29.77,East,90,0.0,-999.0,62,-99.99,,,0.00,weatherlink.com 1.10,2013-04-11 16:20:00,
2013-04-11 12:35:00,68.9,55.0,29.77,WNW,289,0.0,-999.0,62,-99.99,,,0.00,weatherlink.com 1.10,2013-04-11 16:35:00,
2013-04-11 12:50:00,68.8,55.0,29.77,SE,127,1.0,-999.0,62,-99.99,,,0.00,weatherlink.com 1.10,2013-04-11 16:50:00,
2013-04-11 13:05:00,68.8,55.0,29.76,NNE,14,0.0,-999.0,61,-99.99,,,0.00,weatherlink.com 1.10,2013-04-11 17:05:00,
2013-04-11 13:20:00,68.9,55.0,29.76,South,186,0.0,-999.0,61,-99.99,,,0.00,weatherlink.com 1.10,2013-04-11 17:20:00,
2013-04-11 13:35:00,69.8,54.0,29.76,WNW,296,0.0,-999.0,58,-99.99,,,0.00,weatherlink.com 1.10,2013-04-11 17:35:00,
2013-04-11 13:50:00,70.9,55.0,29.75,NE,41,1.0,-999.0,57,-99.99,,,0.00,weatherlink.com 1.10,2013-04-11 17:50:00,
2013-04-11 14:05:00,71.5,54.0,29.74,East,85,4.0,-999.0,55,-99.99,,,0.00,weatherlink.com 1.10,2013-04-11 18:05:00,
2013-04-11 14:20:00,72.5,55.0,29.73,SSW,209,3.0,-999.0,54,-99.99,,,0.00,weatherlink.com 1.10,2013-04-11 18:20:00,
2013-04-11 14:35:00,72.3,55.0,29.72,SSE,147,0.0,-999.0,54,-99.99,,,0.00,weatherlink.com 1.10,2013-04-11 18:35:00,
2013-04-11 14:50:00,72.8,53.0,29.71,WSW,237,7.0,-999.0,50,-99.99,,,0.00,weatherlink.com 1.10,2013-04-11 18:50:00,
2013-04-11 15:05:00,72.3,53.0,29.70,SSE,168,5.0,-999.0,50,-99.99,,,0.00,weatherlink.com 1.10,2013-04-11 19:05:00,
2013-04-11 15:20:00,71.8,53.0,29.70,NE,49,1.0,-999.0,51,-99.99,,,0.00,weatherlink.com 1.10,2013-04-11 19:20:00,
2013-04-11 15:50:00,72.1,53.0,29.69,SSE,154,9.0,-999.0,51,-99.99,,,0.00,weatherlink.com 1.10,2013-04-11 19:50:00,
2013-04-11 16:05:00,70.6,52.0,29.68,ESE,119,0.0,-999.0,52,-99.99,,,0.00,weatherlink.com 1.10,2013-04-11 20:05:00,
2013-04-11 16:20:00,71.1,52.0,29.68,ENE,58,0.0,-999.0,52,-99.99,,,0.00,weatherlink.com 1.10,2013-04-11 20:20:00,
2013-04-11 16:35:00,70.3,53.0,29.67,ENE,68,0.0,-999.0,54,-99.99,,,0.00,weatherlink.com 1.10,2013-04-11 20:35:00,
2013-04-11 16:50:00,69.8,52.0,29.66,East,97,4.0,-999.0,54,-99.99,,,0.00,weatherlink.com 1.10,2013-04-11 20:50:00,
2013-04-11 17:05:00,69.1,53.0,29.68,East,83,0.0,-999.0,56,-99.99,,,0.00,weatherlink.com 1.10,2013-04-11 21:05:00,
2013-04-11 17:20:00,69.6,53.0,29.66,SSW,200,4.0,-999.0,55,-99.99,,,0.00,weatherlink.com 1.10,2013-04-11 21:20:00,
2013-04-11 17:35:00,69.3,52.0,29.67,SW,224,5.0,-999.0,54,-99.99,,,0.00,weatherlink.com 1.10,2013-04-11 21:35:00,
2013-04-11 17:50:00,69.8,52.0,29.66,SE,143,0.0,-999.0,54,-99.99,,,0.00,weatherlink.com 1.10,2013-04-11 21:50:00,
2013-04-11 18:05:00,69.8,53.0,29.66,SE,126,0.0,-999.0,56,-99.99,,,0.00,weatherlink.com 1.10,2013-04-11 22:05:00,
2013-04-11 18:20:00,68.9,53.0,29.66,SE,145,0.0,-999.0,57,-99.99,,,0.00,weatherlink.com 1.10,2013-04-11 22:20:00,
2013-04-11 18:35:00,68.6,54.0,29.67,SW,227,0.0,-999.0,59,-99.99,,,0.00,weatherlink.com 1.10,2013-04-11 22:35:00,
2013-04-11 18:50:00,68.1,54.0,29.67,NNE,28,0.0,-999.0,60,-99.99,,,0.00,weatherlink.com 1.10,2013-04-11 22:50:00,
2013-04-11 19:05:00,67.4,53.0,29.66,SSW,213,0.0,-999.0,60,-99.99,,,0.00,weatherlink.com 1.10,2013-04-11 23:05:00,
2013-04-11 19:20:00,66.8,54.0,29.67,NNE,27,0.0,-999.0,63,-99.99,,,0.00,weatherlink.com 1.10,2013-04-11 23:20:00,
2013-04-11 19:35:00,66.3,54.0,29.66,North,0,0.0,-999.0,65,-99.99,,,0.00,weatherlink.com 1.10,2013-04-11 23:35:00,
2013-04-11 19:50:00,65.8,54.0,29.66,SSE,165,0.0,-999.0,66,-99.99,,,0.00,weatherlink.com 1.10,2013-04-11 23:50:00,
2013-04-11 20:05:00,65.5,55.0,29.65,NNE,16,0.0,-999.0,69,-99.99,,,0.00,weatherlink.com 1.10,2013-04-12 00:05:00,
2013-04-11 20:20:00,65.0,57.0,29.66,SW,216,3.0,-999.0,74,-99.99,,,0.00,weatherlink.com 1.10,2013-04-12 00:20:00,
2013-04-11 20:35:00,63.5,59.0,29.63,SE,145,0.0,-999.0,84,-99.99,,,0.01,weatherlink.com 1.10,2013-04-12 00:35:00,
2013-04-11 20:50:00,62.0,59.0,29.64,SE,145,0.0,-999.0,89,-99.99,,,0.02,weatherlink.com 1.10,2013-04-12 00:50:00,
2013-04-11 21:05:00,61.2,59.0,29.64,ESE,119,0.0,-999.0,92,-99.99,,,0.04,weatherlink.com 1.10,2013-04-12 01:05:00,
2013-04-11 21:20:00,60.9,59.0,29.64,West,267,0.0,-999.0,93,-99.99,,,0.05,weatherlink.com 1.10,2013-04-12 01:20:00,
2013-04-11 21:35:00,60.9,59.0,29.62,SW,229,0.0,-999.0,93,-99.99,,,0.06,weatherlink.com 1.10,2013-04-12 01:35:00,
2013-04-11 21:50:00,60.9,59.0,29.60,ESE,113,0.0,-999.0,94,-99.99,,,0.07,weatherlink.com 1.10,2013-04-12 01:50:00,
2013-04-11 22:05:00,60.9,60.0,29.60,SSE,161,0.0,-999.0,95,-99.99,,,0.08,weatherlink.com 1.10,2013-04-12 02:05:00,
2013-04-11 22:20:00,60.9,60.0,29.60,SSE,147,0.0,-999.0,95,-99.99,,,0.08,weatherlink.com 1.10,2013-04-12 02:20:00,
2013-04-11 22:35:00,61.0,60.0,29.60,SSE,165,3.0,-999.0,95,-99.99,,,0.09,weatherlink.com 1.10,2013-04-12 02:35:00,
2013-04-11 22:50:00,61.0,60.0,29.60,NNE,17,0.0,-999.0,95,-99.99,,,0.09,weatherlink.com 1.10,2013-04-12 02:50:00,
2013-04-11 23:05:00,61.2,60.0,29.59,North,349,0.0,-999.0,95,-99.99,,,0.10,weatherlink.com 1.10,2013-04-12 03:05:00,
2013-04-11 23:20:00,61.0,60.0,29.58,South,179,0.0,-999.0,96,-99.99,,,0.10,weatherlink.com 1.10,2013-04-12 03:20:00,
2013-04-11 23:35:00,60.9,60.0,29.58,South,189,0.0,-999.0,97,-99.99,,,0.10,weatherlink.com 1.10,2013-04-12 03:35:00,
2013-04-11 23:51:00,60.7,60.0,29.57,North,4,4.0,-999.0,98,-99.99,,,0.11,weatherlink.com 1.10,2013-04-12 03:51:00,